Time,TemperatureF,DewpointF,PressureIn,WindDirection,WindDirectionDegrees,WindSpeedMPH,WindSpeedGustMPH,Humidity,HourlyPrecipIn,Conditions,Clouds,dailyrainin,SoftwareType,DateUTC
2013-02-17 00:10:00,30.9,17.9,29.64,NNW,337,1.1,-999.0,58,-99.99,,,0.00,Acu-Link.com,2013-02-17 05:10:00,
2013-02-17 00:26:00,30.9,17.9,29.64,NNW,337,1.1,-999.0,58,-99.99,,,0.00,Acu-Link.com,2013-02-17 05:26:00,
2013-02-17 00:41:00,30.9,17.9,29.63,NNW,337,1.1,-999.0,58,-99.99,,,0.00,Acu-Link.com,2013-02-17 05:41:00,
2013-02-17 00:56:00,30.9,17.9,29.62,NNW,337,1.1,-999.0,58,-99.99,,,0.00,Acu-Link.com,2013-02-17 05:56:00,
2013-02-17 01:12:00,24.8,9.3,29.63,ENE,67,4.7,-999.0,51,-99.99,,,0.00,Acu-Link.com,2013-02-17 06:12:00,
2013-02-17 01:27:00,24.8,7.9,29.63,NNW,337,1.6,-999.0,48,-99.99,,,0.00,Acu-Link.com,2013-02-17 06:27:00,
2013-02-17 01:42:00,24.8,5.5,29.62,North,0,2.2,-999.0,43,-99.99,,,0.00,Acu-Link.com,2013-02-17 06:42:00,
2013-02-17 01:57:00,24.6,5.9,29.61,NNW,337,4.7,-999.0,44,-99.99,,,0.00,Acu-Link.com,2013-02-17 06:57:00,
2013-02-17 02:13:00,24.4,5.7,29.61,North,0,3.8,-999.0,44,-99.99,,,0.00,Acu-Link.com,2013-02-17 07:13:00,
2013-02-17 02:28:00,24.4,6.7,29.60,North,0,2.2,-999.0,46,-99.99,,,0.00,Acu-Link.com,2013-02-17 07:28:00,
2013-02-17 02:43:00,24.1,5.9,29.59,SE,135,2.7,-999.0,45,-99.99,,,0.00,Acu-Link.com,2013-02-17 07:43:00,
2013-02-17 02:59:00,23.7,5.5,29.59,North,0,7.4,-999.0,45,-99.99,,,0.00,Acu-Link.com,2013-02-17 07:59:00,
2013-02-17 03:14:00,23.2,4.5,29.59,North,0,2.7,-999.0,44,-99.99,,,0.00,Acu-Link.com,2013-02-17 08:14:00,
2013-02-17 03:29:00,23.0,4.4,29.57,North,0,3.1,-999.0,44,-99.99,,,0.00,Acu-Link.com,2013-02-17 08:29:00,
2013-02-17 03:45:00,22.8,4.2,29.58,North,0,7.8,-999.0,44,-99.99,,,0.00,Acu-Link.com,2013-02-17 08:45:00,
2013-02-17 04:00:00,22.6,5.0,29.58,North,0,6.3,-999.0,46,-99.99,,,0.00,Acu-Link.com,2013-02-17 09:00:00,
2013-02-17 04:17:00,22.6,5.0,29.58,North,0,8.9,-999.0,46,-99.99,,,0.00,Acu-Link.com,2013-02-17 09:17:00,
2013-02-17 04:32:00,22.3,6.5,29.57,ESE,112,14.1,-999.0,50,-99.99,,,0.00,Acu-Link.com,2013-02-17 09:32:00,
2013-02-17 04:47:00,21.9,6.6,29.56,North,0,2.2,-999.0,51,-99.99,,,0.00,Acu-Link.com,2013-02-17 09:47:00,
2013-02-17 05:02:00,21.2,6.8,29.56,North,0,4.7,-999.0,53,-99.99,,,0.00,Acu-Link.com,2013-02-17 10:02:00,
2013-02-17 05:18:00,21.2,6.4,29.56,NNW,337,4.3,-999.0,52,-99.99,,,0.00,Acu-Link.com,2013-02-17 10:18:00,
2013-02-17 05:33:00,21.2,4.6,29.55,NW,315,4.7,-999.0,48,-99.99,,,0.00,Acu-Link.com,2013-02-17 10:33:00,
2013-02-17 05:48:00,21.0,4.0,29.53,NE,45,7.8,-999.0,47,-99.99,,,0.00,Acu-Link.com,2013-02-17 10:48:00,
2013-02-17 06:03:00,21.0,4.0,29.53,NNW,337,11.4,-999.0,47,-99.99,,,0.00,Acu-Link.com,2013-02-17 11:03:00,
2013-02-17 06:19:00,21.0,3.5,29.52,NNW,337,7.8,-999.0,46,-99.99,,,0.00,Acu-Link.com,2013-02-17 11:19:00,
2013-02-17 06:34:00,20.8,3.4,29.51,North,0,5.8,-999.0,46,-99.99,,,0.00,Acu-Link.com,2013-02-17 11:34:00,
2013-02-17 06:49:00,20.8,3.8,29.50,NNW,337,8.9,-999.0,47,-99.99,,,0.00,Acu-Link.com,2013-02-17 11:49:00,
2013-02-17 07:04:00,20.7,4.1,29.50,NNW,337,3.8,-999.0,48,-99.99,,,0.00,Acu-Link.com,2013-02-17 12:04:00,
2013-02-17 07:20:00,20.5,3.5,29.49,NNW,337,2.2,-999.0,47,-99.99,,,0.00,Acu-Link.com,2013-02-17 12:20:00,
2013-02-17 07:35:00,20.3,2.9,29.50,North,0,1.1,-999.0,46,-99.99,,,0.00,Acu-Link.com,2013-02-17 12:35:00,
2013-02-17 07:50:00,19.9,2.1,29.49,NNW,337,5.8,-999.0,45,-99.99,,,0.00,Acu-Link.com,2013-02-17 12:50:00,
2013-02-17 08:05:00,19.8,1.4,29.48,North,0,6.3,-999.0,44,-99.99,,,0.00,Acu-Link.com,2013-02-17 13:05:00,
2013-02-17 08:21:00,19.8,0.9,29.48,ENE,67,6.3,-999.0,43,-99.99,,,0.00,Acu-Link.com,2013-02-17 13:21:00,
2013-02-17 08:36:00,19.9,1.6,29.47,North,0,6.3,-999.0,44,-99.99,,,0.00,Acu-Link.com,2013-02-17 13:36:00,
2013-02-17 08:51:00,20.1,1.7,29.47,NNW,337,11.0,-999.0,44,-99.99,,,0.00,Acu-Link.com,2013-02-17 13:51:00,
2013-02-17 09:06:00,20.3,1.4,29.45,North,0,5.1,-999.0,43,-99.99,,,0.00,Acu-Link.com,2013-02-17 14:06:00,
2013-02-17 09:21:00,20.3,0.9,29.45,ESE,112,5.1,-999.0,42,-99.99,,,0.00,Acu-Link.com,2013-02-17 14:21:00,
2013-02-17 09:37:00,20.8,1.9,29.44,North,0,3.8,-999.0,43,-99.99,,,0.00,Acu-Link.com,2013-02-17 14:37:00,
2013-02-17 09:52:00,21.4,2.4,29.43,NNW,337,2.7,-999.0,43,-99.99,,,0.00,Acu-Link.com,2013-02-17 14:52:00,
2013-02-17 10:07:00,21.4,2.4,29.43,North,0,3.1,-999.0,43,-99.99,,,0.00,Acu-Link.com,2013-02-17 15:07:00,
2013-02-17 10:23:00,21.6,3.1,29.43,NNE,22,4.7,-999.0,44,-99.99,,,0.00,Acu-Link.com,2013-02-17 15:23:00,
2013-02-17 10:38:00,22.3,2.7,29.43,North,0,3.1,-999.0,42,-99.99,,,0.00,Acu-Link.com,2013-02-17 15:38:00,
2013-02-17 10:53:00,22.3,2.7,29.43,North,0,3.1,-999.0,42,-99.99,,,0.00,Acu-Link.com,2013-02-17 15:53:00,
2013-02-17 11:09:00,22.5,2.4,29.43,North,0,8.3,-999.0,41,-99.99,,,0.00,Acu-Link.com,2013-02-17 16:09:00,
2013-02-17 11:24:00,22.5,2.4,29.43,North,0,8.3,-999.0,41,-99.99,,,0.00,Acu-Link.com,2013-02-17 16:24:00,
2013-02-17 11:39:00,22.5,2.4,29.42,North,0,8.3,-999.0,41,-99.99,,,0.00,Acu-Link.com,2013-02-17 16:39:00,
2013-02-17 11:54:00,22.5,2.4,29.43,North,0,8.3,-999.0,41,-99.99,,,0.00,Acu-Link.com,2013-02-17 16:54:00,
2013-02-17 12:09:00,22.5,2.4,29.43,North,0,8.3,-999.0,41,-99.99,,,0.00,Acu-Link.com,2013-02-17 17:09:00,
2013-02-17 12:25:00,22.5,3.9,29.43,SW,225,7.8,-999.0,44,-99.99,,,0.00,Acu-Link.com,2013-02-17 17:25:00,
2013-02-17 12:40:00,23.2,4.0,29.43,North,0,8.9,-999.0,43,-99.99,,,0.00,Acu-Link.com,2013-02-17 17:40:00,
2013-02-17 12:55:00,22.6,4.5,29.44,SW,225,8.3,-999.0,45,-99.99,,,0.00,Acu-Link.com,2013-02-17 17:55:00,
2013-02-17 13:11:00,22.8,3.7,29.44,NNW,337,3.1,-999.0,43,-99.99,,,0.00,Acu-Link.com,2013-02-17 18:11:00,
2013-02-17 13:26:00,22.8,3.2,29.44,NE,45,7.4,-999.0,42,-99.99,,,0.00,Acu-Link.com,2013-02-17 18:26:00,
2013-02-17 13:41:00,23.4,3.7,29.45,SW,225,6.3,-999.0,42,-99.99,,,0.00,Acu-Link.com,2013-02-17 18:41:00,
2013-02-17 13:56:00,24.4,4.2,29.45,SW,225,6.3,-999.0,41,-99.99,,,0.00,Acu-Link.com,2013-02-17 18:56:00,
2013-02-17 14:12:00,24.6,3.8,29.45,SSE,157,8.9,-999.0,40,-99.99,,,0.00,Acu-Link.com,2013-02-17 19:12:00,
2013-02-17 14:27:00,24.8,2.8,29.45,North,0,6.3,-999.0,38,-99.99,,,0.00,Acu-Link.com,2013-02-17 19:27:00,
2013-02-17 14:42:00,25.0,2.4,29.46,NW,315,4.7,-999.0,37,-99.99,,,0.00,Acu-Link.com,2013-02-17 19:42:00,
2013-02-17 14:58:00,25.3,2.2,29.46,North,0,1.6,-999.0,36,-99.99,,,0.00,Acu-Link.com,2013-02-17 19:58:00,
2013-02-17 15:13:00,25.5,1.7,29.46,SSE,157,7.4,-999.0,35,-99.99,,,0.00,Acu-Link.com,2013-02-17 20:13:00,
2013-02-17 15:28:00,25.9,2.0,29.46,NNW,337,14.1,-999.0,35,-99.99,,,0.00,Acu-Link.com,2013-02-17 20:28:00,
2013-02-17 15:43:00,26.1,1.6,29.46,ENE,67,5.1,-999.0,34,-99.99,,,0.00,Acu-Link.com,2013-02-17 20:43:00,
2013-02-17 15:58:00,26.4,1.3,29.46,West,270,4.3,-999.0,33,-99.99,,,0.00,Acu-Link.com,2013-02-17 20:58:00,
2013-02-17 16:14:00,26.2,1.1,29.47,NNW,337,7.4,-999.0,33,-99.99,,,0.00,Acu-Link.com,2013-02-17 21:14:00,
2013-02-17 16:29:00,26.1,0.9,29.48,NNW,337,4.7,-999.0,33,-99.99,,,0.00,Acu-Link.com,2013-02-17 21:29:00,
2013-02-17 16:44:00,25.0,0.6,29.49,North,0,3.1,-999.0,34,-99.99,,,0.00,Acu-Link.com,2013-02-17 21:44:00,
2013-02-17 17:00:00,23.7,1.3,29.49,ESE,112,4.3,-999.0,37,-99.99,,,0.00,Acu-Link.com,2013-02-17 22:00:00,
2013-02-17 17:15:00,22.6,1.5,29.51,NNW,337,4.3,-999.0,39,-99.99,,,0.00,Acu-Link.com,2013-02-17 22:15:00,
2013-02-17 17:30:00,21.9,1.3,29.53,NW,315,6.3,-999.0,40,-99.99,,,0.00,Acu-Link.com,2013-02-17 22:30:00,
2013-02-17 17:45:00,21.2,1.2,29.53,NNW,337,4.7,-999.0,41,-99.99,,,0.00,Acu-Link.com,2013-02-17 22:45:00,
2013-02-17 18:01:00,20.7,0.2,29.54,WSW,247,9.4,-999.0,40,-99.99,,,0.00,Acu-Link.com,2013-02-17 23:01:00,
2013-02-17 18:16:00,20.3,0.4,29.56,WSW,247,4.7,-999.0,41,-99.99,,,0.00,Acu-Link.com,2013-02-17 23:16:00,
2013-02-17 18:31:00,19.9,1.1,29.56,West,270,4.3,-999.0,43,-99.99,,,0.00,Acu-Link.com,2013-02-17 23:31:00,
2013-02-17 18:47:00,19.4,1.6,29.57,SW,225,2.7,-999.0,45,-99.99,,,0.00,Acu-Link.com,2013-02-17 23:47:00,
2013-02-17 19:02:00,18.9,2.0,29.58,SW,225,6.3,-999.0,47,-99.99,,,0.00,Acu-Link.com,2013-02-18 00:02:00,
2013-02-17 19:17:00,18.1,1.8,29.59,NNW,337,5.8,-999.0,48,-99.99,,,0.00,Acu-Link.com,2013-02-18 00:17:00,
2013-02-17 19:33:00,17.6,1.7,29.59,SW,225,9.4,-999.0,49,-99.99,,,0.00,Acu-Link.com,2013-02-18 00:33:00,
2013-02-17 19:48:00,17.2,1.4,29.60,North,0,6.3,-999.0,49,-99.99,,,0.00,Acu-Link.com,2013-02-18 00:48:00,
2013-02-17 20:03:00,16.7,0.9,29.61,WNW,292,3.1,-999.0,49,-99.99,,,0.01,Acu-Link.com,2013-02-18 01:03:00,
2013-02-17 20:18:00,16.2,0.8,29.61,NW,315,3.1,-999.0,50,-99.99,,,0.01,Acu-Link.com,2013-02-18 01:18:00,
2013-02-17 20:34:00,15.8,0.9,29.62,WSW,247,6.3,-999.0,51,-99.99,,,0.01,Acu-Link.com,2013-02-18 01:34:00,
2013-02-17 20:49:00,15.3,0.8,29.63,NNW,337,13.4,-999.0,52,-99.99,,,0.01,Acu-Link.com,2013-02-18 01:49:00,
2013-02-17 21:04:00,14.9,0.5,29.63,NNW,337,5.8,-999.0,52,-99.99,,,0.01,Acu-Link.com,2013-02-18 02:04:00,
2013-02-17 21:20:00,14.5,0.6,29.63,NNW,337,8.9,-999.0,53,-99.99,,,0.01,Acu-Link.com,2013-02-18 02:20:00,
2013-02-17 21:35:00,14.2,0.2,29.64,SW,225,10.3,-999.0,53,-99.99,,,0.01,Acu-Link.com,2013-02-18 02:35:00,
2013-02-17 21:50:00,14.0,-0.3,29.65,SW,225,4.7,-999.0,52,-99.99,,,0.01,Acu-Link.com,2013-02-18 02:50:00,
2013-02-17 22:05:00,14.0,0.1,29.66,SW,225,3.1,-999.0,53,-99.99,,,0.01,Acu-Link.com,2013-02-18 03:05:00,
2013-02-17 22:21:00,13.6,-0.3,29.66,ESE,112,3.8,-999.0,53,-99.99,,,0.01,Acu-Link.com,2013-02-18 03:21:00,
2013-02-17 22:36:00,13.5,-0.4,29.67,West,270,3.1,-999.0,53,-99.99,,,0.01,Acu-Link.com,2013-02-18 03:36:00,
2013-02-17 22:51:00,13.3,-0.6,29.67,WSW,247,3.1,-999.0,53,-99.99,,,0.01,Acu-Link.com,2013-02-18 03:51:00,
2013-02-17 23:07:00,12.9,-0.6,29.68,ENE,67,1.6,-999.0,54,-99.99,,,0.01,Acu-Link.com,2013-02-18 04:07:00,
2013-02-17 23:22:00,12.9,-0.2,29.70,West,270,10.3,-999.0,55,-99.99,,,0.01,Acu-Link.com,2013-02-18 04:22:00,
2013-02-17 23:37:00,12.9,-0.6,29.70,WSW,247,5.8,-999.0,54,-99.99,,,0.01,Acu-Link.com,2013-02-18 04:37:00,
2013-02-17 23:52:00,12.7,-0.7,29.71,NW,315,5.1,-999.0,54,-99.99,,,0.01,Acu-Link.com,2013-02-18 04:52:00,